createdAt,value
2023-03-11T00:00:22.520Z,54.49
2023-03-11T00:03:12.178Z,54.93
2023-03-11T00:05:42.370Z,54.96
2023-03-11T00:08:16.030Z,55.44
2023-03-11T00:10:45.407Z,55.56
2023-03-11T00:13:14.066Z,55.92
2023-03-11T00:15:42.269Z,56.10
2023-03-11T00:18:09.001Z,56.63
2023-03-11T00:20:38.589Z,56.64
2023-03-11T00:23:07.895Z,56.93
2023-03-11T00:25:37.566Z,57.42
2023-03-11T00:28:06.791Z,57.31
2023-03-11T00:30:33.530Z,57.66
2023-03-11T00:33:00.714Z,57.68
2023-03-11T00:35:30.592Z,57.80
2023-03-11T00:38:00.355Z,57.76
2023-03-11T00:40:29.671Z,58.16
2023-03-11T00:42:57.631Z,57.89
2023-03-11T00:45:25.333Z,58.01
2023-03-11T00:47:52.410Z,57.65
2023-03-11T00:50:23.853Z,57.79
2023-03-11T00:52:51.776Z,57.97
2023-03-11T00:55:22.797Z,57.51
2023-03-11T00:57:56.655Z,57.60
2023-03-11T01:00:27.726Z,57.44
2023-03-11T01:02:56.976Z,57.27
2023-03-11T01:05:30.223Z,57.34
2023-03-11T01:07:57.251Z,56.96
2023-03-11T01:10:24.234Z,56.81
2023-03-11T01:12:51.288Z,56.79
2023-03-11T01:15:24.736Z,56.78
2023-03-11T01:17:51.359Z,56.67
2023-03-11T01:20:18.293Z,56.57
2023-03-11T01:22:44.984Z,56.73
2023-03-11T01:25:14.400Z,56.78
2023-03-11T01:27:41.967Z,56.90
2023-03-11T01:30:12.619Z,57.27
2023-03-11T01:32:39.440Z,57.01
2023-03-11T01:35:06.781Z,57.34
2023-03-11T01:37:33.378Z,57.19
2023-03-11T01:40:00.297Z,57.08
2023-03-11T01:42:27.263Z,57.30
2023-03-11T01:44:55.081Z,57.58
2023-03-11T01:47:37.968Z,57.75
2023-03-11T01:50:10.978Z,58.07
2023-03-11T01:52:37.990Z,58.44
2023-03-11T01:55:06.162Z,58.62
2023-03-11T01:57:33.299Z,58.91
2023-03-11T02:00:04.803Z,58.77
2023-03-11T02:02:48.786Z,58.48
2023-03-11T02:05:16.187Z,58.60
2023-03-11T02:07:42.737Z,58.40
2023-03-11T02:10:13.048Z,58.30
2023-03-11T02:12:42.046Z,58.39
2023-03-11T02:15:10.437Z,58.12
2023-03-11T02:17:39.782Z,58.17
2023-03-11T02:20:26.677Z,58.24
2023-03-11T02:22:56.680Z,58.26
2023-03-11T02:25:42.468Z,58.20
2023-03-11T02:28:12.120Z,58.12
2023-03-11T02:30:41.745Z,58.02
2023-03-11T02:33:09.653Z,57.95
2023-03-11T02:35:36.567Z,58.11
2023-03-11T02:38:03.388Z,57.84
2023-03-11T02:40:40.930Z,58.09
2023-03-11T02:43:12.869Z,58.19
2023-03-11T02:45:43.337Z,58.47
2023-03-11T02:48:11.741Z,58.52
2023-03-11T02:50:39.881Z,58.60
2023-03-11T02:53:07.487Z,58.47
2023-03-11T02:55:34.553Z,58.68
2023-03-11T02:58:01.389Z,58.60
2023-03-11T03:00:28.300Z,58.24
2023-03-11T03:03:01.735Z,58.52
2023-03-11T03:05:28.902Z,58.65
2023-03-11T03:07:56.678Z,58.33
2023-03-11T03:10:23.846Z,58.40
2023-03-11T03:12:50.623Z,58.18
2023-03-11T03:15:17.433Z,58.23
2023-03-11T03:17:45.561Z,58.47
2023-03-11T03:20:13.452Z,58.28
2023-03-11T03:22:43.808Z,58.28
2023-03-11T03:25:11.710Z,58.36
2023-03-11T03:27:38.649Z,58.38
2023-03-11T03:30:07.560Z,58.50
2023-03-11T03:32:35.386Z,58.58
2023-03-11T03:35:03.317Z,58.60
2023-03-11T03:37:43.420Z,58.62
2023-03-11T03:40:10.732Z,59.09
2023-03-11T03:42:38.018Z,59.40
2023-03-11T03:45:07.273Z,59.69
2023-03-11T03:47:35.596Z,59.64
2023-03-11T03:50:08.659Z,59.81
2023-03-11T03:52:36.796Z,60.33
2023-03-11T03:55:05.657Z,60.24
2023-03-11T03:57:32.505Z,60.11
2023-03-11T03:59:59.243Z,59.63
2023-03-11T04:02:27.545Z,59.37
2023-03-11T04:04:56.308Z,59.41
2023-03-11T04:07:23.191Z,59.23
2023-03-11T04:09:50.611Z,59.25
2023-03-11T04:12:17.431Z,59.27
2023-03-11T04:14:44.660Z,59.35
2023-03-11T04:17:13.793Z,59.50
2023-03-11T04:19:40.746Z,59.34
2023-03-11T04:22:08.181Z,59.58
2023-03-11T04:24:35.256Z,59.57
2023-03-11T04:27:02.401Z,59.40
2023-03-11T04:29:29.577Z,59.63
2023-03-11T04:31:56.305Z,59.49
2023-03-11T04:34:23.035Z,59.19
2023-03-11T04:36:54.289Z,59.47
2023-03-11T04:39:23.372Z,59.60
2023-03-11T04:41:50.623Z,59.68
2023-03-11T04:44:19.926Z,60.10
2023-03-11T04:46:47.073Z,60.52
2023-03-11T04:49:15.036Z,60.55
2023-03-11T04:51:42.389Z,60.77
2023-03-11T04:54:09.789Z,60.93
2023-03-11T04:56:36.720Z,61.18
2023-03-11T04:59:03.654Z,61.51
2023-03-11T05:01:30.706Z,61.66
2023-03-11T05:03:58.687Z,61.75
2023-03-11T05:06:25.503Z,61.68
2023-03-11T05:08:52.100Z,61.63
2023-03-11T05:11:18.879Z,62.05
2023-03-11T05:13:46.423Z,62.12
2023-03-11T05:16:13.333Z,62.24
2023-03-11T05:18:40.202Z,62.97
2023-03-11T05:21:06.932Z,63.04
2023-03-11T05:23:34.015Z,63.62
2023-03-11T05:26:01.080Z,63.15
2023-03-11T05:28:28.437Z,64.02
2023-03-11T05:30:55.420Z,64.26
2023-03-11T05:33:22.785Z,64.92
2023-03-11T05:35:51.473Z,64.79
2023-03-11T05:38:18.495Z,64.82
2023-03-11T05:40:45.298Z,65.24
2023-03-11T05:43:12.218Z,65.60
2023-03-11T05:45:40.519Z,65.70
2023-03-11T05:48:07.375Z,65.80
2023-03-11T05:50:34.446Z,66.30
2023-03-11T05:53:01.197Z,66.20
2023-03-11T05:55:29.527Z,66.72
2023-03-11T05:57:56.438Z,66.37
2023-03-11T06:00:23.381Z,66.46
2023-03-11T06:02:50.483Z,66.41
2023-03-11T06:05:18.478Z,66.24
2023-03-11T06:07:46.284Z,66.25
2023-03-11T06:10:13.112Z,65.94
2023-03-11T06:12:40.510Z,66.07
2023-03-11T06:15:33.872Z,65.96
2023-03-11T06:18:00.651Z,65.58
2023-03-11T06:20:28.172Z,65.52
2023-03-11T06:22:55.135Z,65.23
2023-03-11T06:25:23.220Z,64.63
2023-03-11T06:27:52.688Z,64.28
2023-03-11T06:30:20.356Z,64.19
2023-03-11T06:33:08.601Z,63.98
2023-03-11T06:35:35.497Z,63.50
2023-03-11T06:38:02.287Z,63.24
2023-03-11T06:40:29.026Z,62.78
2023-03-11T06:42:55.968Z,62.55
2023-03-11T06:45:23.120Z,62.65
2023-03-11T06:47:50.481Z,61.99
2023-03-11T06:50:17.383Z,61.80
2023-03-11T06:52:44.149Z,61.70
2023-03-11T06:55:10.898Z,61.84
2023-03-11T06:57:37.471Z,61.60
2023-03-11T07:00:09.708Z,61.41
2023-03-11T07:02:36.359Z,60.89
2023-03-11T07:05:03.985Z,61.30
2023-03-11T07:07:31.261Z,60.99
2023-03-11T07:09:59.630Z,60.89
2023-03-11T07:12:26.368Z,60.96
2023-03-11T07:14:58.448Z,60.83
2023-03-11T07:17:26.412Z,60.37
2023-03-11T07:19:54.009Z,60.30
2023-03-11T07:22:20.779Z,60.32
2023-03-11T07:24:48.736Z,59.61
2023-03-11T07:27:15.730Z,59.71
2023-03-11T07:29:42.705Z,59.62
2023-03-11T07:32:09.948Z,59.51
2023-03-11T07:34:36.555Z,59.49
2023-03-11T07:37:03.749Z,59.11
2023-03-11T07:39:30.399Z,58.20
2023-03-11T07:41:57.048Z,57.50
2023-03-11T07:44:29.327Z,57.15
2023-03-11T07:46:55.974Z,56.92
2023-03-11T07:49:22.670Z,56.61
2023-03-11T07:51:49.324Z,55.74
2023-03-11T07:54:16.031Z,55.68
2023-03-11T07:56:42.611Z,55.25
2023-03-11T07:59:09.470Z,55.11
2023-03-11T08:01:36.227Z,50.30
2023-03-11T08:04:05.488Z,44.72
2023-03-11T08:06:34.468Z,41.51
2023-03-11T08:09:04.639Z,40.93
2023-03-11T08:11:32.055Z,39.89
2023-03-11T08:13:59.289Z,38.35
2023-03-11T08:16:26.903Z,37.63
2023-03-11T08:18:54.036Z,35.97
2023-03-11T08:21:26.057Z,36.47
2023-03-11T08:23:57.046Z,33.03
2023-03-11T08:26:24.295Z,30.99
2023-03-11T08:28:51.001Z,28.95
2023-03-11T08:31:26.639Z,29.34
2023-03-11T08:33:58.080Z,29.04
2023-03-11T08:36:24.775Z,28.39
2023-03-11T08:38:51.714Z,27.73
2023-03-11T08:41:18.832Z,26.32
2023-03-11T08:43:45.804Z,24.84
2023-03-11T08:46:36.214Z,23.36
2023-03-11T08:49:03.868Z,23.30
2023-03-11T08:51:33.110Z,22.12
2023-03-11T08:54:00.827Z,22.48
2023-03-11T08:56:27.990Z,22.92
2023-03-11T08:58:54.934Z,23.35
2023-03-11T09:01:23.016Z,23.39
2023-03-11T09:03:49.954Z,23.45
2023-03-11T09:06:17.553Z,24.71
2023-03-11T09:08:45.514Z,23.41
2023-03-11T09:11:13.259Z,22.14
2023-03-11T09:13:41.663Z,22.22
2023-03-11T09:16:16.943Z,22.46
2023-03-11T09:18:45.523Z,22.56
2023-03-11T09:21:12.525Z,23.03
2023-03-11T09:23:41.574Z,22.92
2023-03-11T09:26:09.539Z,22.00
2023-03-11T09:28:36.142Z,21.79
2023-03-11T09:31:02.970Z,21.19
2023-03-11T09:33:29.781Z,20.93
2023-03-11T09:35:58.361Z,20.53
2023-03-11T09:38:25.065Z,20.48
2023-03-11T09:40:57.435Z,20.67
2023-03-11T09:43:49.973Z,19.12
2023-03-11T09:46:31.762Z,18.76
2023-03-11T09:49:27.863Z,18.47
2023-03-11T09:52:10.391Z,17.73
2023-03-11T09:54:42.244Z,17.19
2023-03-11T09:57:16.128Z,16.25
2023-03-11T09:59:44.550Z,16.33
2023-03-11T10:02:18.299Z,15.64
2023-03-11T10:04:56.714Z,16.09
2023-03-11T10:07:32.106Z,16.02
2023-03-11T10:09:59.762Z,16.40
2023-03-11T10:13:10.319Z,16.82
2023-03-11T10:16:03.302Z,18.51
2023-03-11T10:18:49.225Z,20.53
2023-03-11T10:21:38.023Z,21.06
2023-03-11T10:24:17.159Z,22.02
2023-03-11T10:26:57.241Z,22.20
2023-03-11T10:29:30.211Z,21.72
2023-03-11T10:32:16.705Z,21.12
2023-03-11T10:34:51.450Z,20.00
2023-03-11T10:37:46.540Z,19.16
2023-03-11T10:40:27.621Z,17.17
2023-03-11T10:42:57.991Z,17.06
2023-03-11T10:45:26.703Z,17.25
2023-03-11T10:48:02.859Z,17.89
2023-03-11T10:50:36.332Z,16.37
2023-03-11T10:53:09.279Z,15.96
2023-03-11T10:55:45.902Z,16.61
2023-03-11T10:58:17.700Z,17.10
2023-03-11T11:00:44.770Z,16.87
2023-03-11T11:03:21.333Z,15.82
2023-03-11T11:05:59.027Z,15.18
2023-03-11T11:08:26.059Z,15.32
2023-03-11T11:11:01.313Z,16.84
2023-03-11T11:13:31.898Z,18.48
2023-03-11T11:16:17.129Z,19.47
2023-03-11T11:18:49.354Z,19.72
2023-03-11T11:21:35.486Z,19.54
2023-03-11T11:24:23.153Z,19.25
2023-03-11T11:27:20.167Z,20.11
2023-03-11T11:30:01.713Z,19.89
2023-03-11T11:32:28.596Z,19.50
2023-03-11T11:35:01.482Z,19.40
2023-03-11T11:37:37.250Z,21.03
2023-03-11T11:40:31.616Z,21.85
2023-03-11T11:43:01.126Z,23.48
2023-03-11T11:45:36.381Z,24.34
2023-03-11T11:48:26.878Z,25.51
2023-03-11T11:50:58.940Z,26.16
2023-03-11T11:53:41.540Z,27.00
2023-03-11T11:56:08.571Z,27.50
2023-03-11T11:58:35.849Z,28.15
2023-03-11T12:01:13.553Z,28.16
2023-03-11T12:03:59.673Z,28.62
2023-03-11T12:06:45.027Z,28.67
2023-03-11T12:09:31.908Z,28.76
2023-03-11T12:12:08.114Z,28.86
2023-03-11T12:14:54.850Z,28.75
2023-03-11T12:17:24.194Z,29.04
2023-03-11T12:20:03.145Z,29.19
2023-03-11T12:22:45.072Z,29.35
2023-03-11T12:25:29.550Z,29.20
2023-03-11T12:28:12.658Z,28.05
2023-03-11T12:30:46.093Z,26.37
2023-03-11T12:33:24.434Z,25.31
2023-03-11T12:35:57.463Z,24.91
2023-03-11T12:38:26.804Z,24.54
2023-03-11T12:41:04.140Z,24.27
2023-03-11T12:43:33.060Z,24.08
2023-03-11T12:46:04.449Z,23.67
2023-03-11T12:48:33.015Z,22.98
2023-03-11T12:51:00.372Z,20.92
2023-03-11T12:53:41.416Z,20.39
2023-03-11T12:56:22.890Z,21.28
2023-03-11T12:58:52.645Z,22.79
2023-03-11T13:01:44.812Z,24.32
2023-03-11T13:04:19.818Z,25.52
2023-03-11T13:07:09.497Z,26.01
2023-03-11T13:09:36.436Z,26.74
2023-03-11T13:12:03.290Z,26.97
2023-03-11T13:14:32.917Z,27.82
2023-03-11T13:17:24.015Z,28.78
2023-03-11T13:19:53.486Z,29.60
2023-03-11T13:22:41.566Z,30.63
2023-03-11T13:25:27.133Z,31.37
2023-03-11T13:28:01.646Z,32.29
2023-03-11T13:30:34.538Z,32.58
2023-03-11T13:33:10.087Z,33.13
2023-03-11T13:36:14.203Z,34.05
2023-03-11T13:39:07.801Z,35.21
2023-03-11T13:41:36.668Z,35.78
2023-03-11T13:44:18.757Z,35.97
2023-03-11T13:46:49.777Z,37.02
2023-03-11T13:49:38.158Z,37.14
2023-03-11T13:52:12.159Z,37.49
2023-03-11T13:54:44.835Z,37.51
2023-03-11T13:57:36.160Z,37.73
2023-03-11T14:00:17.144Z,38.34
2023-03-11T14:02:50.559Z,38.67
2023-03-11T14:05:22.904Z,39.68
2023-03-11T14:07:50.055Z,39.62
2023-03-11T14:10:16.694Z,39.82
2023-03-11T14:12:44.055Z,40.01
2023-03-11T14:15:23.580Z,39.00
2023-03-11T14:17:52.176Z,37.12
2023-03-11T14:20:24.620Z,36.12
2023-03-11T14:22:54.304Z,35.04
2023-03-11T14:25:30.402Z,33.37
2023-03-11T14:28:00.942Z,31.70
2023-03-11T14:30:33.366Z,32.07
2023-03-11T14:33:21.245Z,30.92
2023-03-11T14:35:59.960Z,31.39
2023-03-11T14:38:29.815Z,31.69
2023-03-11T14:40:59.860Z,32.29
2023-03-11T14:43:34.471Z,33.08
2023-03-11T14:46:03.969Z,33.25
2023-03-11T14:48:41.049Z,33.62
2023-03-11T14:51:16.564Z,33.73
2023-03-11T14:53:49.643Z,33.89
2023-03-11T14:56:21.236Z,33.62
2023-03-11T14:59:08.022Z,33.65
2023-03-11T15:01:41.340Z,33.15
2023-03-11T15:04:33.848Z,33.62
2023-03-11T15:07:03.595Z,33.69
2023-03-11T15:09:31.835Z,34.15
2023-03-11T15:12:03.611Z,34.62
2023-03-11T15:14:31.900Z,34.96
2023-03-11T15:17:43.888Z,35.29
2023-03-11T15:20:33.596Z,35.89
2023-03-11T15:23:02.962Z,36.49
2023-03-11T15:25:33.592Z,36.77
2023-03-11T15:28:21.637Z,37.37
2023-03-11T15:30:48.298Z,38.53
2023-03-11T15:33:32.599Z,38.79
2023-03-11T15:35:59.388Z,39.08
2023-03-11T15:38:27.901Z,39.56
2023-03-11T15:40:59.856Z,39.99
2023-03-11T15:43:26.550Z,40.11
2023-03-11T15:45:55.611Z,40.55
2023-03-11T15:48:23.122Z,40.70
2023-03-11T15:50:54.465Z,41.28
2023-03-11T15:53:23.948Z,41.46
2023-03-11T15:55:52.837Z,42.13
2023-03-11T15:58:20.943Z,42.05
2023-03-11T16:00:53.465Z,42.04
2023-03-11T16:03:20.448Z,42.66
2023-03-11T16:05:47.365Z,42.57
2023-03-11T16:08:14.745Z,42.75
2023-03-11T16:10:41.953Z,43.15
2023-03-11T16:13:12.842Z,42.88
2023-03-11T16:15:41.752Z,43.16
2023-03-11T16:18:09.936Z,43.24
2023-03-11T16:20:41.451Z,43.20
2023-03-11T16:23:19.817Z,43.15
2023-03-11T16:25:47.776Z,43.16
2023-03-11T16:28:16.122Z,43.19
2023-03-11T16:30:43.574Z,42.84
2023-03-11T16:33:10.402Z,42.84
2023-03-11T16:35:37.554Z,43.15
2023-03-11T16:38:06.149Z,43.23
2023-03-11T16:40:32.961Z,43.20
2023-03-11T16:43:05.154Z,43.08
2023-03-11T16:45:32.454Z,43.25
2023-03-11T16:47:59.294Z,43.17
2023-03-11T16:50:26.502Z,43.42
2023-03-11T16:52:55.852Z,43.29
2023-03-11T16:55:24.030Z,43.09
2023-03-11T16:57:51.159Z,43.22
2023-03-11T17:00:18.129Z,44.00
2023-03-11T17:02:44.942Z,43.72
2023-03-11T17:05:11.813Z,43.87
2023-03-11T17:07:40.024Z,43.92
2023-03-11T17:10:09.299Z,43.90
2023-03-11T17:12:36.209Z,43.73
2023-03-11T17:15:05.510Z,43.66
2023-03-11T17:17:32.336Z,43.86
2023-03-11T17:19:59.086Z,43.78
2023-03-11T17:22:25.860Z,43.85
2023-03-11T17:24:52.859Z,44.02
2023-03-11T17:27:19.498Z,43.78
2023-03-11T17:29:46.157Z,44.07
2023-03-11T17:32:17.225Z,44.15
2023-03-11T17:34:44.328Z,43.62
2023-03-11T17:37:11.084Z,44.09
2023-03-11T17:39:37.910Z,44.14
2023-03-11T17:42:05.400Z,43.83
2023-03-11T17:44:48.337Z,43.89
2023-03-11T17:47:19.122Z,43.73
2023-03-11T17:49:45.967Z,43.93
2023-03-11T17:52:12.729Z,43.85
2023-03-11T17:54:39.417Z,43.93
2023-03-11T17:57:07.102Z,43.44
2023-03-11T17:59:34.563Z,43.54
2023-03-11T18:02:01.804Z,43.40
2023-03-11T18:04:28.394Z,43.54
2023-03-11T18:06:55.629Z,43.50
2023-03-11T18:09:22.220Z,43.24
2023-03-11T18:11:48.999Z,43.59
2023-03-11T18:14:15.940Z,43.93
2023-03-11T18:16:44.111Z,43.77
2023-03-11T18:19:10.864Z,43.82
2023-03-11T18:21:37.584Z,43.88
2023-03-11T18:24:04.647Z,44.45
2023-03-11T18:26:31.411Z,44.90
2023-03-11T18:28:59.377Z,45.02
2023-03-11T18:31:28.718Z,45.39
2023-03-11T18:33:59.057Z,45.77
2023-03-11T18:36:31.454Z,45.87
2023-03-11T18:38:59.695Z,46.22
2023-03-11T18:41:30.268Z,46.45
2023-03-11T18:43:57.208Z,46.48
2023-03-11T18:46:25.858Z,46.99
2023-03-11T18:48:53.342Z,46.93
2023-03-11T18:51:19.970Z,46.84
2023-03-11T18:53:48.255Z,47.34
2023-03-11T18:56:16.530Z,47.15
2023-03-11T18:58:43.872Z,47.46
2023-03-11T19:01:16.918Z,47.66
2023-03-11T19:03:48.501Z,48.02
2023-03-11T19:06:16.109Z,47.63
2023-03-11T19:08:44.074Z,47.79
2023-03-11T19:11:15.196Z,47.71
2023-03-11T19:13:46.913Z,48.30
2023-03-11T19:16:20.318Z,48.23
2023-03-11T19:18:47.106Z,48.53
2023-03-11T19:21:15.373Z,48.84
2023-03-11T19:23:42.437Z,48.49
2023-03-11T19:26:09.796Z,48.51
2023-03-11T19:28:36.824Z,49.06
2023-03-11T19:31:04.443Z,49.34
2023-03-11T19:33:32.011Z,48.96
2023-03-11T19:36:01.258Z,49.03
2023-03-11T19:38:28.900Z,49.11
2023-03-11T19:41:07.971Z,49.70
2023-03-11T19:43:35.779Z,49.74
2023-03-11T19:46:04.234Z,50.50
2023-03-11T19:48:31.711Z,51.93
2023-03-11T19:50:59.020Z,53.37
2023-03-11T19:53:26.485Z,53.59
2023-03-11T19:55:55.312Z,53.90
2023-03-11T19:58:23.303Z,54.22
2023-03-11T20:00:50.519Z,54.86
2023-03-11T20:03:18.608Z,55.40
2023-03-11T20:05:46.416Z,56.40
2023-03-11T20:08:16.429Z,56.43
2023-03-11T20:10:46.299Z,56.91
2023-03-11T20:13:14.983Z,57.20
2023-03-11T20:15:41.776Z,57.61
2023-03-11T20:18:08.630Z,58.02
2023-03-11T20:20:38.539Z,57.70
2023-03-11T20:23:05.452Z,58.03
2023-03-11T20:25:32.423Z,59.19
2023-03-11T20:28:00.877Z,58.73
2023-03-11T20:30:28.592Z,59.26
2023-03-11T20:32:55.539Z,58.46
2023-03-11T20:35:22.804Z,58.15
2023-03-11T20:37:49.685Z,58.09
2023-03-11T20:40:18.310Z,58.14
2023-03-11T20:42:46.450Z,58.42
2023-03-11T20:45:21.043Z,58.49
2023-03-11T20:47:49.225Z,58.11
2023-03-11T20:50:16.027Z,58.27
2023-03-11T20:52:42.771Z,58.52
2023-03-11T20:55:10.336Z,58.66
2023-03-11T20:57:38.939Z,58.83
2023-03-11T21:00:10.625Z,58.96
2023-03-11T21:02:39.255Z,59.27
2023-03-11T21:05:08.099Z,59.44
2023-03-11T21:07:35.781Z,59.59
2023-03-11T21:10:08.310Z,59.92
2023-03-11T21:12:34.922Z,59.86
2023-03-11T21:15:02.170Z,58.96
2023-03-11T21:17:28.965Z,59.00
2023-03-11T21:19:56.684Z,58.51
2023-03-11T21:22:23.601Z,57.66
2023-03-11T21:24:54.454Z,57.56
2023-03-11T21:27:25.722Z,57.11
2023-03-11T21:29:57.316Z,57.05
2023-03-11T21:32:25.492Z,57.20
2023-03-11T21:34:59.773Z,56.57
2023-03-11T21:37:27.988Z,56.52
2023-03-11T21:39:55.166Z,56.23
2023-03-11T21:42:21.909Z,56.20
2023-03-11T21:44:50.671Z,56.22
2023-03-11T21:47:17.374Z,56.62
2023-03-11T21:49:44.260Z,56.12
2023-03-11T21:52:11.041Z,55.90
2023-03-11T21:54:37.827Z,56.35
2023-03-11T21:57:04.539Z,56.04
2023-03-11T21:59:31.379Z,55.48
2023-03-11T22:02:02.130Z,55.41
2023-03-11T22:04:31.032Z,55.12
2023-03-11T22:06:58.237Z,55.18
2023-03-11T22:09:25.623Z,55.19
2023-03-11T22:11:52.750Z,54.94
2023-03-11T22:14:19.800Z,54.76
2023-03-11T22:16:46.731Z,54.80
2023-03-11T22:19:13.758Z,53.95
2023-03-11T22:21:40.469Z,53.72
2023-03-11T22:24:07.557Z,53.82
2023-03-11T22:26:34.266Z,53.49
2023-03-11T22:29:03.748Z,53.68
2023-03-11T22:31:30.927Z,53.03
2023-03-11T22:33:57.760Z,52.90
2023-03-11T22:36:24.414Z,52.88
2023-03-11T22:38:51.144Z,52.46
2023-03-11T22:41:19.715Z,52.41
2023-03-11T22:43:46.973Z,52.26
2023-03-11T22:46:14.256Z,51.70
2023-03-11T22:48:41.239Z,51.47
2023-03-11T22:51:08.242Z,51.27
2023-03-11T22:53:34.982Z,51.44
2023-03-11T22:56:07.454Z,50.63
2023-03-11T22:58:34.934Z,50.80
2023-03-11T23:01:03.393Z,50.74
2023-03-11T23:03:32.827Z,50.81
2023-03-11T23:06:00.548Z,50.87
2023-03-11T23:08:27.385Z,50.90
2023-03-11T23:10:54.249Z,50.55
2023-03-11T23:13:20.856Z,50.76
2023-03-11T23:15:47.995Z,50.83
2023-03-11T23:18:15.538Z,50.73
2023-03-11T23:20:43.012Z,50.51
2023-03-11T23:23:11.114Z,50.50
2023-03-11T23:25:39.293Z,50.81
2023-03-11T23:28:06.828Z,50.43
2023-03-11T23:30:34.701Z,50.35
2023-03-11T23:33:02.351Z,50.41
2023-03-11T23:35:29.827Z,50.52
2023-03-11T23:37:56.737Z,50.24
2023-03-11T23:40:23.510Z,50.37
2023-03-11T23:42:50.272Z,50.61
2023-03-11T23:45:18.429Z,50.65
2023-03-11T23:47:45.049Z,50.75
2023-03-11T23:50:11.915Z,50.67
2023-03-11T23:52:38.708Z,50.40
2023-03-11T23:55:06.379Z,50.65
2023-03-11T23:57:36.627Z,50.70
